Time;durP1;ratioP1;P1;durP2;ratioP2;P2;SDS_P1;SDS_P2;PMS_P1;PMS_P2;Temp;Humidity;BMP_temperature;BMP_pressure;BME280_temperature;BME280_humidity;BME280_pressure;Samples;Min_cycle;Max_cycle;Signal;HPM_P1;HPM_P2
2022/01/31 00:01:54;;;;;;;65.30;8.13;;;28.90;67.80;;;;;;5097186;28;20105;-50
2022/01/31 00:04:21;;;;;;;46.53;6.57;;;28.90;67.90;;;;;;5098750;28;20028;-54
2022/01/31 00:06:48;;;;;;;58.88;7.18;;;28.90;67.80;;;;;;5101579;28;20020;-54
2022/01/31 00:09:17;;;;;;;37.42;7.68;;;28.80;67.70;;;;;;5100410;28;20375;-51
2022/01/31 00:11:54;;;;;;;67.50;9.20;;;28.80;67.50;;;;;;5105997;28;20028;-51
2022/01/31 00:14:32;;;;;;;52.92;9.38;;;28.80;67.80;;;;;;5098386;28;20028;-50
2022/01/31 00:16:59;;;;;;;42.42;8.93;;;28.70;67.90;;;;;;5106276;28;20173;-48
2022/01/31 00:19:26;;;;;;;40.42;9.10;;;28.70;68.00;;;;;;5105949;28;20035;-46
2022/01/31 00:21:52;;;;;;;50.92;9.15;;;28.70;68.10;;;;;;5106086;28;20054;-52
2022/01/31 00:24:21;;;;;;;55.83;10.45;;;28.70;68.30;;;;;;5087666;28;20040;-49
2022/01/31 00:26:47;;;;;;;56.78;12.60;;;28.70;68.50;;;;;;5105942;28;20020;-49
2022/01/31 00:29:14;;;;;;;55.65;11.73;;;28.70;68.60;;;;;;5105787;28;20181;-49
2022/01/31 00:31:41;;;;;;;92.53;14.10;;;28.70;68.50;;;;;;5105658;28;20012;-50
2022/01/31 00:34:07;;;;;;;454.92;28.33;;;28.70;68.80;;;;;;5071295;28;20095;-47
2022/01/31 00:36:34;;;;;;;132.20;15.65;;;28.60;69.00;;;;;;5105605;28;20024;-48
2022/01/31 00:39:04;;;;;;;73.60;12.45;;;28.60;69.10;;;;;;5105601;28;20028;-51
2022/01/31 00:41:30;;;;;;;45.63;11.07;;;28.60;69.00;;;;;;5105826;28;20020;-50
2022/01/31 00:44:12;;;;;;;99.47;14.43;;;28.60;69.20;;;;;;5105141;28;20051;-51
2022/01/31 00:46:42;;;;;;;238.93;19.10;;;28.50;69.40;;;;;;5089119;28;20216;-49
2022/01/31 00:49:50;;;;;;;94.82;12.70;;;28.50;69.50;;;;;;5105564;28;20086;-49
2022/01/31 00:52:05;;;;;;;71.57;11.55;;;28.50;69.50;;;;;;5100392;28;20199;-50
2022/01/31 00:54:33;;;;;;;53.38;10.88;;;28.40;69.50;;;;;;5105631;28;20095;-50
2022/01/31 00:57:00;;;;;;;48.45;11.05;;;28.40;69.60;;;;;;5105297;28;20213;-56
2022/01/31 00:59:26;;;;;;;26.33;9.90;;;28.40;69.60;;;;;;5105523;28;20047;-46
2022/01/31 01:01:53;;;;;;;60.38;11.50;;;28.40;69.50;;;;;;5104385;28;20241;-45
2022/01/31 01:04:19;;;;;;;27.33;10.57;;;28.40;69.60;;;;;;5104576;28;20255;-46
2022/01/31 01:06:46;;;;;;;76.20;12.40;;;28.40;69.30;;;;;;5097779;28;20220;-50
2022/01/31 01:09:13;;;;;;;85.65;13.00;;;28.40;69.50;;;;;;5097218;28;20048;-49
2022/01/31 01:11:39;;;;;;;56.38;12.20;;;28.40;69.50;;;;;;5098601;28;20088;-49
2022/01/31 01:14:06;;;;;;;38.88;10.93;;;28.40;69.30;;;;;;5100444;28;20204;-49
2022/01/31 01:16:35;;;;;;;102.70;14.05;;;28.40;69.30;;;;;;5104908;28;20072;-47
2022/01/31 01:19:02;;;;;;;41.03;11.38;;;28.40;69.40;;;;;;5086648;28;20208;-49
2022/01/31 01:21:29;;;;;;;79.32;13.18;;;28.30;69.30;;;;;;5098531;28;20172;-47
2022/01/31 01:23:56;;;;;;;90.05;12.70;;;28.30;69.40;;;;;;5093872;28;20047;-48
2022/01/31 01:26:23;;;;;;;160.10;16.17;;;28.30;69.50;;;;;;5084170;28;20021;-48
2022/01/31 01:28:50;;;;;;;74.00;12.30;;;28.30;69.30;;;;;;5084458;28;20053;-49
2022/01/31 01:31:17;;;;;;;168.23;16.48;;;28.30;69.20;;;;;;5084600;28;20070;-52
2022/01/31 01:33:44;;;;;;;81.68;12.75;;;28.30;69.00;;;;;;5084630;28;20036;-51
2022/01/31 01:36:14;;;;;;;64.07;10.98;;;28.20;68.90;;;;;;5083802;28;20309;-46
2022/01/31 01:38:41;;;;;;;34.20;10.25;;;28.20;68.70;;;;;;5084683;28;20052;-46
2022/01/31 01:41:10;;;;;;;41.22;10.27;;;28.20;69.00;;;;;;5095122;28;20025;-46
2022/01/31 01:43:38;;;;;;;24.50;9.25;;;28.20;68.40;;;;;;5084739;28;20324;-51
2022/01/31 01:46:05;;;;;;;39.67;10.77;;;28.20;68.20;;;;;;5065640;28;20220;-53
2022/01/31 01:48:37;;;;;;;16.27;9.45;;;28.20;68.10;;;;;;5089850;28;20052;-52
2022/01/31 01:51:04;;;;;;;22.60;9.35;;;28.20;68.10;;;;;;5094527;28;20025;-51
2022/01/31 01:53:31;;;;;;;14.23;9.13;;;28.20;68.00;;;;;;5084074;28;20020;-51
2022/01/31 01:55:58;;;;;;;25.60;9.23;;;28.20;68.00;;;;;;5084402;28;20015;-48
2022/01/31 01:58:27;;;;;;;27.98;10.18;;;28.10;68.00;;;;;;5066174;28;20082;-46
2022/01/31 02:01:02;;;;;;;23.13;9.80;;;28.20;68.00;;;;;;5083856;28;20016;-51
2022/01/31 02:03:33;;;;;;;26.17;9.65;;;28.10;68.00;;;;;;5084062;28;20025;-53
2022/01/31 02:06:00;;;;;;;31.15;10.48;;;28.10;67.90;;;;;;5090205;28;20021;-48
2022/01/31 02:08:28;;;;;;;24.83;9.10;;;28.10;68.00;;;;;;5074174;28;20067;-47
2022/01/31 02:10:55;;;;;;;15.27;9.45;;;28.00;67.90;;;;;;5083852;28;20016;-48
2022/01/31 02:13:26;;;;;;;12.98;8.65;;;28.00;67.80;;;;;;5089179;28;20021;-53
2022/01/31 02:15:53;;;;;;;145.55;15.55;;;28.00;67.80;;;;;;5089240;28;20024;-51
2022/01/31 02:18:24;;;;;;;25.95;9.32;;;28.00;67.80;;;;;;5090803;28;20243;-51
2022/01/31 02:20:51;;;;;;;43.30;10.68;;;27.90;67.80;;;;;;5090245;28;20024;-50
2022/01/31 02:23:18;;;;;;;17.88;9.50;;;27.90;67.90;;;;;;5106118;28;20020;-50
2022/01/31 02:26:10;;;;;;;31.17;9.30;;;27.90;67.90;;;;;;5090475;28;20027;-48
2022/01/31 02:28:40;;;;;;;16.15;9.73;;;27.90;67.70;;;;;;5089355;28;20046;-55
2022/01/31 02:31:08;;;;;;;43.30;11.43;;;27.90;67.70;;;;;;5089132;28;20023;-50
2022/01/31 02:33:35;;;;;;;28.05;9.43;;;27.90;67.80;;;;;;5092019;28;20017;-53
2022/01/31 02:36:04;;;;;;;99.68;12.48;;;27.90;67.80;;;;;;5110528;28;20022;-48
2022/01/31 02:38:32;;;;;;;34.97;10.02;;;27.90;67.80;;;;;;5110471;28;20028;-47
2022/01/31 02:40:59;;;;;;;23.38;9.70;;;27.80;67.70;;;;;;5110540;28;20212;-50
2022/01/31 02:43:31;;;;;;;26.60;9.50;;;27.80;67.70;;;;;;5110682;28;20235;-47
2022/01/31 02:45:59;;;;;;;14.70;8.70;;;27.80;67.80;;;;;;5104552;28;20021;-49
2022/01/31 02:48:28;;;;;;;26.60;9.80;;;27.80;67.80;;;;;;5098969;28;20024;-48
2022/01/31 02:50:56;;;;;;;20.30;8.90;;;27.80;67.50;;;;;;5094159;28;20040;-50
2022/01/31 02:53:29;;;;;;;30.75;12.88;;;27.70;67.40;;;;;;5090305;28;20087;-47
2022/01/31 02:55:59;;;;;;;32.33;16.60;;;27.70;67.40;;;;;;5090577;28;20024;-51
2022/01/31 02:58:29;;;;;;;64.95;18.50;;;27.70;67.50;;;;;;5090375;28;20024;-56
2022/01/31 03:00:57;;;;;;;37.00;16.50;;;27.70;67.60;;;;;;5090111;28;20079;-48
2022/01/31 03:03:24;;;;;;;36.78;17.40;;;27.70;67.50;;;;;;5090242;28;20051;-48
2022/01/31 03:05:51;;;;;;;36.50;17.40;;;27.70;67.60;;;;;;5088959;28;20062;-47
2022/01/31 03:08:18;;;;;;;29.08;18.27;;;27.70;67.60;;;;;;5089664;28;20056;-49
2022/01/31 03:10:45;;;;;;;32.30;17.70;;;27.70;67.90;;;;;;5097086;28;20011;-48
2022/01/31 03:13:12;;;;;;;95.40;19.30;;;27.60;68.00;;;;;;5116672;28;20292;-48
2022/01/31 03:15:38;;;;;;;92.50;18.65;;;27.60;68.20;;;;;;5098414;28;20304;-52
2022/01/31 03:18:06;;;;;;;30.17;13.35;;;27.50;68.60;;;;;;5099650;28;20315;-52
2022/01/31 03:20:32;;;;;;;22.77;12.93;;;27.50;68.70;;;;;;5100559;28;20043;-55
2022/01/31 03:23:00;;;;;;;15.75;11.75;;;27.60;68.70;;;;;;5110293;28;20032;-51
2022/01/31 03:25:26;;;;;;;27.25;12.77;;;27.50;68.60;;;;;;5106355;28;20031;-52
2022/01/31 03:29:17;;;;;;;19.88;11.98;;;27.50;68.30;;;;;;5122218;27;20409;-54
2022/01/31 03:31:44;;;;;;;20.63;11.48;;;27.50;68.40;;;;;;5121725;28;20407;-53
2022/01/31 03:34:10;;;;;;;16.05;10.48;;;27.60;68.10;;;;;;5121976;28;20086;-53
2022/01/31 03:36:37;;;;;;;19.83;11.20;;;27.60;67.90;;;;;;5121972;28;20082;-53
2022/01/31 03:39:04;;;;;;;12.25;10.30;;;27.60;67.60;;;;;;5121741;28;20016;-51
2022/01/31 03:41:30;;;;;;;16.33;9.77;;;27.60;67.60;;;;;;5121737;28;20035;-52
2022/01/31 03:43:57;;;;;;;12.65;9.82;;;27.60;67.50;;;;;;5122254;28;20027;-52
2022/01/31 03:46:24;;;;;;;166.65;16.77;;;27.70;67.50;;;;;;5121600;28;20012;-51
2022/01/31 03:48:50;;;;;;;73.15;12.32;;;27.70;67.50;;;;;;5121945;28;20032;-51
2022/01/31 03:51:17;;;;;;;19.95;9.90;;;27.70;67.40;;;;;;5121546;28;20019;-52
2022/01/31 03:53:44;;;;;;;19.25;10.55;;;27.70;67.30;;;;;;5113877;28;20173;-52
2022/01/31 03:56:10;;;;;;;18.20;10.98;;;27.60;67.20;;;;;;5109617;28;20120;-51
2022/01/31 03:58:37;;;;;;;21.05;12.18;;;27.60;67.00;;;;;;5122025;28;20031;-53
2022/01/31 04:01:04;;;;;;;22.35;12.30;;;27.60;66.90;;;;;;5121411;28;20020;-54
2022/01/31 04:03:30;;;;;;;24.13;12.82;;;27.60;66.80;;;;;;5121336;28;20031;-51
2022/01/31 04:05:57;;;;;;;21.52;12.93;;;27.60;66.60;;;;;;5121608;28;20022;-51
2022/01/31 04:08:23;;;;;;;21.92;12.27;;;27.60;66.50;;;;;;5109466;28;20091;-51
2022/01/31 04:10:50;;;;;;;25.52;12.73;;;27.60;66.30;;;;;;5120727;28;20230;-52
2022/01/31 04:13:18;;;;;;;20.00;12.63;;;27.60;66.30;;;;;;5121753;28;20039;-51
2022/01/31 04:15:45;;;;;;;21.17;12.60;;;27.60;66.20;;;;;;5121216;28;20019;-51
2022/01/31 04:18:12;;;;;;;19.17;11.65;;;27.60;66.10;;;;;;5121485;28;20031;-52
2022/01/31 04:20:39;;;;;;;17.58;12.40;;;27.60;66.10;;;;;;5121167;28;20091;-53
2022/01/31 04:23:12;;;;;;;16.90;12.10;;;27.60;66.00;;;;;;5121215;28;20035;-51
2022/01/31 04:25:45;;;;;;;15.65;12.18;;;27.60;66.00;;;;;;5120884;28;20069;-54
2022/01/31 04:28:20;;;;;;;19.23;11.90;;;27.60;66.00;;;;;;5120803;28;20201;-53
2022/01/31 04:30:58;;;;;;;27.40;12.40;;;27.60;66.00;;;;;;5121251;28;20107;-51
2022/01/31 04:33:27;;;;;;;16.88;11.10;;;27.60;66.00;;;;;;5121204;28;20208;-50
2022/01/31 04:35:55;;;;;;;14.82;11.30;;;27.60;66.10;;;;;;5120775;28;20060;-51
2022/01/31 04:38:23;;;;;;;18.77;10.82;;;27.60;66.30;;;;;;5119617;28;20028;-51
2022/01/31 04:40:49;;;;;;;13.15;10.80;;;27.60;66.20;;;;;;5106909;28;20023;-54
2022/01/31 04:43:16;;;;;;;13.20;11.27;;;27.60;66.20;;;;;;5107563;28;20046;-51
2022/01/31 04:45:47;;;;;;;12.85;10.07;;;27.60;66.20;;;;;;5107078;28;20031;-52
2022/01/31 04:48:18;;;;;;;21.15;10.10;;;27.60;66.30;;;;;;5106817;28;20036;-58
2022/01/31 04:50:46;;;;;;;15.23;9.67;;;27.60;66.50;;;;;;5107079;28;20252;-59
2022/01/31 04:53:14;;;;;;;11.40;9.48;;;27.60;66.50;;;;;;5107040;28;20024;-52
2022/01/31 04:55:41;;;;;;;10.75;9.20;;;27.60;66.50;;;;;;5105256;28;20016;-53
2022/01/31 04:58:09;;;;;;;11.13;9.65;;;27.60;66.50;;;;;;5086680;28;20347;-53
2022/01/31 05:00:36;;;;;;;17.58;9.40;;;27.60;66.60;;;;;;5086303;28;20194;-56
2022/01/31 05:03:08;;;;;;;14.02;9.45;;;27.60;66.70;;;;;;5086510;28;20145;-57
2022/01/31 05:05:35;;;;;;;;;;;27.60;66.80;;;;;;5086629;28;20020;-53
2022/01/31 05:08:01;;;;;;;12.43;9.35;;;27.60;66.80;;;;;;5086353;28;20074;-56
2022/01/31 05:10:28;;;;;;;20.25;9.45;;;27.60;66.90;;;;;;5086013;28;20016;-53
2022/01/31 05:12:54;;;;;;;10.48;9.07;;;27.60;66.80;;;;;;5086314;28;20029;-51
2022/01/31 05:15:21;;;;;;;14.02;9.95;;;27.50;66.70;;;;;;5091606;28;20024;-55
2022/01/31 05:17:47;;;;;;;10.40;9.02;;;27.50;66.70;;;;;;5094131;28;20031;-57
2022/01/31 05:20:14;;;;;;;11.88;9.27;;;27.50;66.60;;;;;;5094148;28;20012;-52
2022/01/31 05:22:41;;;;;;;12.32;9.23;;;27.50;66.60;;;;;;5086284;28;20179;-53
2022/01/31 05:25:08;;;;;;;11.70;9.05;;;27.50;66.60;;;;;;5086005;28;20219;-59
2022/01/31 05:27:34;;;;;;;13.00;9.15;;;27.50;66.60;;;;;;5085484;28;20036;-52
2022/01/31 05:30:02;;;;;;;12.40;9.13;;;27.50;66.50;;;;;;5085954;28;20029;-52
2022/01/31 05:32:28;;;;;;;9.25;8.07;;;27.50;66.50;;;;;;5086956;28;20024;-53
2022/01/31 05:34:55;;;;;;;10.57;9.45;;;27.50;66.50;;;;;;5085659;28;20328;-52
2022/01/31 05:37:21;;;;;;;12.43;8.70;;;27.50;66.50;;;;;;5085776;28;20083;-52
2022/01/31 05:39:48;;;;;;;14.15;9.02;;;27.50;66.50;;;;;;5085512;28;20097;-54
2022/01/31 05:42:15;;;;;;;14.95;9.40;;;27.50;66.50;;;;;;5085559;28;20047;-56
2022/01/31 05:44:43;;;;;;;12.98;9.27;;;27.50;66.50;;;;;;5085425;28;20016;-57
2022/01/31 05:47:09;;;;;;;13.20;8.88;;;27.50;66.50;;;;;;5085402;28;20032;-54
2022/01/31 05:49:38;;;;;;;14.85;9.57;;;27.50;66.40;;;;;;5085379;28;20051;-51
2022/01/31 05:52:07;;;;;;;10.30;8.90;;;27.50;66.50;;;;;;5084743;28;20028;-52
2022/01/31 05:54:36;;;;;;;13.30;9.35;;;27.50;66.40;;;;;;5085164;28;20020;-51
2022/01/31 05:57:03;;;;;;;12.20;8.85;;;27.50;66.40;;;;;;5085236;28;20052;-55
2022/01/31 05:59:30;;;;;;;11.80;8.85;;;27.50;66.50;;;;;;5085234;28;20016;-52
2022/01/31 06:01:58;;;;;;;12.15;9.25;;;27.40;66.30;;;;;;5084977;28;20028;-52
2022/01/31 06:04:33;;;;;;;10.20;9.18;;;27.50;66.40;;;;;;5085013;28;20017;-53
2022/01/31 06:07:00;;;;;;;12.32;9.77;;;27.40;66.30;;;;;;5084940;28;20302;-52
2022/01/31 06:09:28;;;;;;;11.68;9.13;;;27.50;66.40;;;;;;5085064;28;20020;-51
2022/01/31 06:11:55;;;;;;;14.10;8.98;;;27.40;66.30;;;;;;5084875;28;20029;-53
2022/01/31 06:14:22;;;;;;;11.88;9.38;;;27.50;66.40;;;;;;5084825;28;20048;-51
2022/01/31 06:16:49;;;;;;;10.68;8.95;;;27.40;66.20;;;;;;5084651;28;20271;-56
2022/01/31 06:19:15;;;;;;;12.35;8.75;;;27.40;66.20;;;;;;5084793;28;20020;-52
2022/01/31 06:21:42;;;;;;;10.55;9.45;;;27.40;66.20;;;;;;5084738;28;20339;-52
2022/01/31 06:24:10;;;;;;;10.25;8.60;;;27.40;66.10;;;;;;5084635;28;20020;-54
2022/01/31 06:26:42;;;;;;;14.77;8.93;;;27.40;66.10;;;;;;5084613;28;20020;-56
2022/01/31 06:29:09;;;;;;;12.90;9.60;;;27.40;66.10;;;;;;5084573;28;20044;-51
2022/01/31 06:31:35;;;;;;;10.52;9.35;;;27.40;66.10;;;;;;5084304;28;20316;-51
2022/01/31 06:34:03;;;;;;;10.65;9.38;;;27.40;66.10;;;;;;5084685;28;20054;-57
2022/01/31 06:36:29;;;;;;;10.27;9.18;;;27.40;66.00;;;;;;5084568;28;20012;-51
2022/01/31 06:38:56;;;;;;;19.00;10.15;;;27.40;66.00;;;;;;5084834;28;20028;-54
2022/01/31 06:41:23;;;;;;;14.95;9.35;;;27.40;66.00;;;;;;5084389;28;20024;-52
2022/01/31 06:43:51;;;;;;;13.35;9.40;;;27.30;66.00;;;;;;5084818;28;20316;-55
2022/01/31 06:46:18;;;;;;;11.77;9.65;;;27.40;66.00;;;;;;5084054;28;20040;-52
2022/01/31 06:48:45;;;;;;;11.18;9.65;;;27.40;65.90;;;;;;5092831;28;20041;-52
2022/01/31 06:51:12;;;;;;;12.45;9.07;;;27.40;65.90;;;;;;5095765;28;20179;-52
2022/01/31 06:53:40;;;;;;;11.20;9.70;;;27.30;65.80;;;;;;5104833;28;20070;-55
2022/01/31 06:56:07;;;;;;;16.10;10.02;;;27.30;65.90;;;;;;5086018;28;20021;-51
2022/01/31 06:58:33;;;;;;;11.52;9.18;;;27.30;65.90;;;;;;5084539;28;20031;-52
2022/01/31 07:01:00;;;;;;;11.73;9.63;;;27.30;65.90;;;;;;5083964;28;20029;-53
2022/01/31 07:03:26;;;;;;;11.45;9.35;;;27.30;66.10;;;;;;5084217;28;20142;-52
2022/01/31 07:05:53;;;;;;;11.02;8.55;;;27.30;66.00;;;;;;5084045;28;20020;-53
2022/01/31 07:08:20;;;;;;;10.00;8.40;;;27.30;66.00;;;;;;5084207;28;20139;-52
2022/01/31 07:10:51;;;;;;;11.48;9.30;;;27.30;66.10;;;;;;5083991;28;20024;-59
2022/01/31 07:16:01;;;;;;;9.70;8.65;;;27.30;66.20;;;;;;5084046;28;20036;-53
2022/01/31 07:18:29;;;;;;;9.13;8.07;;;27.30;66.20;;;;;;5083767;28;20084;-54
2022/01/31 07:20:56;;;;;;;9.85;8.20;;;27.30;66.10;;;;;;5083952;28;20354;-52
2022/01/31 07:23:28;;;;;;;9.75;8.18;;;27.30;66.10;;;;;;5082859;28;20380;-52
2022/01/31 07:25:55;;;;;;;;;;;27.30;66.10;;;;;;5084155;28;20377;-51
2022/01/31 07:28:22;;;;;;;9.45;8.50;;;27.30;66.00;;;;;;5083467;28;20009;-55
2022/01/31 07:30:50;;;;;;;10.18;8.15;;;27.20;66.10;;;;;;5083803;28;20088;-56
2022/01/31 07:33:18;;;;;;;9.43;7.65;;;27.20;66.10;;;;;;5084150;28;20327;-49
2022/01/31 07:35:48;;;;;;;9.85;8.38;;;27.20;66.00;;;;;;5084041;28;20017;-53
2022/01/31 07:38:15;;;;;;;9.48;8.10;;;27.30;66.10;;;;;;5085296;28;20064;-51
2022/01/31 07:40:42;;;;;;;8.77;7.70;;;27.20;66.10;;;;;;5096134;28;20095;-53
2022/01/31 07:43:09;;;;;;;8.75;7.88;;;27.20;66.10;;;;;;5087605;28;20366;-55
2022/01/31 07:45:35;;;;;;;16.02;7.72;;;27.20;66.10;;;;;;5104098;28;20141;-54
2022/01/31 07:48:02;;;;;;;10.85;7.53;;;27.20;66.20;;;;;;5094543;28;20032;-54
2022/01/31 07:50:31;;;;;;;9.68;7.45;;;27.20;66.20;;;;;;5083511;28;20017;-49
2022/01/31 07:52:58;;;;;;;12.00;7.80;;;27.20;66.20;;;;;;5083997;28;20032;-50
2022/01/31 07:55:24;;;;;;;9.02;7.20;;;27.20;66.30;;;;;;5083856;28;20126;-52
2022/01/31 07:57:51;;;;;;;9.20;7.03;;;27.20;66.40;;;;;;5083663;28;20040;-52
2022/01/31 08:00:18;;;;;;;10.10;7.50;;;27.20;66.40;;;;;;5083595;28;20016;-55
2022/01/31 08:02:45;;;;;;;8.80;7.05;;;27.20;66.60;;;;;;5083650;28;20212;-52
2022/01/31 08:05:12;;;;;;;9.18;7.07;;;27.20;66.70;;;;;;5083532;28;20017;-54
2022/01/31 08:07:38;;;;;;;7.95;7.25;;;27.20;66.70;;;;;;5083536;28;20035;-52
2022/01/31 08:10:07;;;;;;;15.90;7.38;;;27.20;66.80;;;;;;5083688;28;20036;-56
2022/01/31 08:12:36;;;;;;;8.68;7.00;;;27.20;67.00;;;;;;5083406;28;20029;-52
2022/01/31 08:15:07;;;;;;;7.82;7.03;;;27.20;67.20;;;;;;5085672;28;20016;-55
2022/01/31 08:17:34;;;;;;;7.65;6.75;;;27.20;67.20;;;;;;5087271;28;20190;-51
2022/01/31 08:20:01;;;;;;;14.18;6.90;;;27.20;67.30;;;;;;5086845;28;20268;-56
2022/01/31 08:22:28;;;;;;;8.95;7.00;;;27.20;67.40;;;;;;5087497;28;20313;-54
2022/01/31 08:24:54;;;;;;;7.70;6.65;;;27.20;67.40;;;;;;5087047;28;20032;-52
2022/01/31 08:27:22;;;;;;;10.40;7.05;;;27.10;67.40;;;;;;5086711;28;20051;-57
2022/01/31 08:29:49;;;;;;;8.48;7.35;;;27.10;67.70;;;;;;5087129;28;20025;-52
2022/01/31 08:32:23;;;;;;;10.43;7.68;;;27.10;68.00;;;;;;5087018;28;20031;-58
2022/01/31 08:37:34;;;;;;;10.57;8.20;;;27.10;68.40;;;;;;5087025;28;20031;-56
2022/01/31 08:40:01;;;;;;;12.40;8.55;;;27.10;68.70;;;;;;5086603;28;20055;-54
2022/01/31 08:42:28;;;;;;;15.07;8.68;;;27.00;69.00;;;;;;5086966;28;20281;-58
2022/01/31 08:44:55;;;;;;;10.45;8.63;;;27.00;69.30;;;;;;5086627;28;20092;-57
2022/01/31 08:47:22;;;;;;;15.55;9.20;;;26.90;69.50;;;;;;5086635;28;20043;-59
2022/01/31 08:49:49;;;;;;;12.80;8.85;;;27.00;69.60;;;;;;5086539;28;20328;-55
2022/01/31 08:52:16;;;;;;;12.35;8.32;;;27.00;69.70;;;;;;5086590;28;20031;-52
2022/01/31 08:54:42;;;;;;;10.18;8.80;;;27.00;69.70;;;;;;5086354;28;20040;-56
2022/01/31 08:57:09;;;;;;;14.40;9.95;;;27.00;69.70;;;;;;5086588;28;20039;-54
2022/01/31 08:59:43;;;;;;;11.50;9.05;;;27.00;69.70;;;;;;5086483;28;20243;-52
2022/01/31 09:02:14;;;;;;;10.95;8.82;;;27.00;69.70;;;;;;5086327;28;20033;-59
2022/01/31 09:04:47;;;;;;;9.65;8.02;;;27.00;69.70;;;;;;5086273;28;20020;-57
2022/01/31 09:07:20;;;;;;;12.70;8.55;;;26.90;69.80;;;;;;5086396;28;20036;-57
2022/01/31 09:09:51;;;;;;;13.35;8.45;;;26.90;69.80;;;;;;5086178;28;20020;-56
2022/01/31 09:12:18;;;;;;;9.35;8.30;;;26.90;69.60;;;;;;5086193;28;20327;-52
2022/01/31 09:14:48;;;;;;;9.60;8.30;;;26.90;69.70;;;;;;5086189;28;20316;-52
2022/01/31 09:17:14;;;;;;;9.38;8.13;;;26.90;69.60;;;;;;5086319;28;20025;-52
2022/01/31 09:19:41;;;;;;;12.10;7.82;;;26.90;69.50;;;;;;5085957;28;20054;-55
2022/01/31 09:22:08;;;;;;;29.20;8.68;;;26.90;69.60;;;;;;5085980;28;20085;-52
2022/01/31 09:24:39;;;;;;;17.80;7.90;;;26.90;69.70;;;;;;5085760;28;20031;-54
2022/01/31 09:27:07;;;;;;;14.90;7.80;;;27.00;69.80;;;;;;5085667;28;20089;-52
2022/01/31 09:29:34;;;;;;;11.68;7.70;;;26.90;69.70;;;;;;5085724;28;20305;-52
2022/01/31 09:32:05;;;;;;;11.23;7.78;;;26.90;69.90;;;;;;5086064;28;20228;-53
2022/01/31 09:34:32;;;;;;;10.40;7.72;;;26.90;69.90;;;;;;5085649;28;20099;-55
2022/01/31 09:37:00;;;;;;;10.43;7.57;;;26.90;69.90;;;;;;5085811;28;20025;-55
2022/01/31 09:39:27;;;;;;;11.48;7.30;;;26.80;69.80;;;;;;5085671;28;20080;-62
2022/01/31 09:41:57;;;;;;;13.15;8.10;;;26.80;70.20;;;;;;5085552;28;20043;-55
2022/01/31 09:49:33;;;;;;;11.70;7.85;;;26.80;70.50;;;;;;5085422;28;20317;-58
2022/01/31 09:52:00;;;;;;;11.27;7.60;;;26.80;70.50;;;;;;5085838;28;20032;-53
2022/01/31 09:54:28;;;;;;;12.02;7.57;;;26.80;70.50;;;;;;5085299;28;20021;-52
2022/01/31 09:56:56;;;;;;;10.15;7.53;;;26.80;70.40;;;;;;5085336;28;20037;-59
2022/01/31 09:59:23;;;;;;;15.32;8.07;;;26.80;70.40;;;;;;5085251;28;20025;-61
2022/01/31 10:01:55;;;;;;;10.30;7.72;;;26.80;70.50;;;;;;5085053;28;20012;-54
2022/01/31 10:04:35;;;;;;;11.48;7.85;;;26.80;70.50;;;;;;5085129;28;20029;-55
2022/01/31 10:07:04;;;;;;;13.20;8.45;;;26.80;70.60;;;;;;5085009;28;20205;-61
2022/01/31 10:09:32;;;;;;;11.70;8.15;;;26.80;70.60;;;;;;5084755;28;20023;-53
2022/01/31 10:17:39;;;;;;;19.45;8.43;;;26.80;70.60;;;;;;5085074;28;20071;-55
2022/01/31 10:20:07;;;;;;;15.20;8.18;;;26.80;70.70;;;;;;5084611;28;20106;-51
2022/01/31 10:22:42;;;;;;;10.93;7.75;;;26.80;70.80;;;;;;5084771;28;20021;-52
2022/01/31 10:25:14;;;;;;;14.90;7.63;;;26.80;70.90;;;;;;5084753;28;20217;-51
2022/01/31 10:27:46;;;;;;;;;;;26.70;70.70;;;;;;5084999;28;20332;-54
2022/01/31 10:30:15;;;;;;;11.10;7.85;;;26.80;70.80;;;;;;5084507;28;19971;-61
2022/01/31 10:32:47;;;;;;;11.25;7.80;;;26.70;70.70;;;;;;5084704;28;20305;-52
2022/01/31 10:35:35;;;;;;;17.42;8.05;;;26.70;70.50;;;;;;5084437;28;20027;-52
2022/01/31 10:38:10;;;;;;;10.40;7.15;;;26.70;70.40;;;;;;5084092;28;20040;-57
2022/01/31 10:50:42;;;;;;;14.52;7.78;;;26.70;70.30;;;;;;5084238;28;20016;-52
2022/01/31 10:52:03;;;;;;;16.27;7.55;;;26.60;70.90;;;;;;5084370;28;20019;-51
2022/01/31 10:57:15;;;;;;;22.70;7.82;;;26.70;70.50;;;;;;5084762;28;20028;-54
2022/01/31 10:59:45;;;;;;;41.47;10.20;;;26.60;70.50;;;;;;5084113;28;20016;-57
2022/01/31 11:02:24;;;;;;;41.65;9.57;;;26.60;70.70;;;;;;5084280;28;20033;-54
2022/01/31 11:04:52;;;;;;;42.80;9.57;;;26.60;70.80;;;;;;5084094;28;20336;-52
2022/01/31 11:07:25;;;;;;;44.13;10.38;;;26.60;70.70;;;;;;5083933;28;20035;-53
2022/01/31 11:09:53;;;;;;;47.40;10.05;;;26.70;70.70;;;;;;5084126;28;20039;-53
2022/01/31 11:12:23;;;;;;;37.08;10.25;;;26.70;70.80;;;;;;5084163;28;20235;-55
2022/01/31 11:14:50;;;;;;;37.92;9.95;;;26.60;70.80;;;;;;5083953;28;20021;-52
2022/01/31 11:17:18;;;;;;;23.73;8.48;;;26.70;71.00;;;;;;5084022;28;20224;-55
2022/01/31 11:19:49;;;;;;;32.05;9.52;;;26.70;70.90;;;;;;5089148;28;20212;-56
2022/01/31 11:22:17;;;;;;;46.63;10.37;;;26.60;71.00;;;;;;5103707;28;20032;-51
2022/01/31 11:24:47;;;;;;;31.38;10.50;;;26.60;71.30;;;;;;5090553;28;20281;-49
2022/01/31 11:27:23;;;;;;;36.65;9.75;;;26.60;71.10;;;;;;5083522;28;20062;-52
2022/01/31 11:29:57;;;;;;;30.30;10.38;;;26.60;71.20;;;;;;5083878;28;20020;-57
2022/01/31 11:32:25;;;;;;;36.58;10.00;;;26.60;71.20;;;;;;5083453;28;20031;-55
2022/01/31 11:34:53;;;;;;;35.72;10.35;;;26.60;71.40;;;;;;5082116;28;20021;-51
2022/01/31 11:37:21;;;;;;;36.28;10.68;;;26.60;71.40;;;;;;5082180;28;20033;-54
2022/01/31 11:40:03;;;;;;;43.78;10.82;;;26.60;71.50;;;;;;5082018;28;20070;-53
2022/01/31 11:42:31;;;;;;;33.17;12.02;;;26.60;71.70;;;;;;5082227;28;20104;-54
2022/01/31 11:45:14;;;;;;;28.48;10.18;;;26.70;71.70;;;;;;5082049;28;20020;-46
2022/01/31 11:47:43;;;;;;;38.97;11.02;;;26.60;71.60;;;;;;5082300;28;20096;-50
2022/01/31 11:50:14;;;;;;;23.20;10.48;;;26.60;71.50;;;;;;5086338;28;20021;-48
2022/01/31 11:52:53;;;;;;;36.92;11.15;;;26.70;71.70;;;;;;5087735;28;20028;-50
2022/01/31 11:55:23;;;;;;;65.75;10.95;;;26.70;71.80;;;;;;5087748;28;20051;-56
2022/01/31 11:57:52;;;;;;;49.67;10.98;;;26.70;71.70;;;;;;5087929;28;20028;-49
2022/01/31 12:00:22;;;;;;;64.93;13.15;;;26.60;71.50;;;;;;5088122;28;20024;-54
2022/01/31 12:02:54;;;;;;;85.90;15.18;;;26.70;71.80;;;;;;5087995;28;20033;-51
2022/01/31 12:05:22;;;;;;;;;;;26.70;71.60;;;;;;5089928;28;20032;-53
2022/01/31 12:08:14;;;;;;;89.13;18.13;;;26.70;71.60;;;;;;5103537;28;19950;-46
2022/01/31 12:11:07;;;;;;;73.88;15.88;;;26.70;71.80;;;;;;5107782;28;20057;-52
2022/01/31 12:13:41;;;;;;;;;;;26.60;71.80;;;;;;5108414;28;20046;-51
2022/01/31 12:16:34;;;;;;;53.80;12.52;;;26.60;71.60;;;;;;5107926;28;20188;-50
2022/01/31 12:19:29;;;;;;;54.10;14.13;;;26.60;72.20;;;;;;5107770;28;20091;-49
2022/01/31 12:22:01;;;;;;;34.95;11.93;;;26.60;73.20;;;;;;5107320;28;20087;-54
2022/01/31 12:24:40;;;;;;;43.13;11.40;;;26.60;72.70;;;;;;5107656;28;20047;-49
2022/01/31 12:27:11;;;;;;;76.35;15.75;;;26.70;72.80;;;;;;5107166;28;20059;-52
2022/01/31 12:29:53;;;;;;;86.00;16.88;;;26.70;72.50;;;;;;5107661;28;20067;-48
2022/01/31 12:32:31;;;;;;;87.77;16.33;;;26.70;72.60;;;;;;5107377;28;20204;-53
2022/01/31 12:34:59;;;;;;;92.82;15.82;;;26.70;72.60;;;;;;5107722;28;20027;-54
2022/01/31 12:37:36;;;;;;;74.40;14.48;;;26.80;72.70;;;;;;5099001;28;20316;-51
2022/01/31 12:40:15;;;;;;;64.68;13.15;;;26.80;72.30;;;;;;5088793;28;20025;-48
2022/01/31 12:43:24;;;;;;;55.30;12.70;;;26.90;72.40;;;;;;5086965;28;20032;-51
2022/01/31 12:45:42;;;;;;;51.67;12.82;;;26.90;72.00;;;;;;5086480;28;20056;-50
2022/01/31 12:48:12;;;;;;;54.67;13.85;;;27.00;71.90;;;;;;5086824;28;20044;-55
2022/01/31 12:50:59;;;;;;;85.05;14.57;;;27.00;71.60;;;;;;5086573;28;20322;-52
2022/01/31 12:56:30;;;;;;;57.67;12.55;;;27.00;71.70;;;;;;5088995;28;20017;-56
2022/01/31 12:59:13;;;;;;;71.38;13.60;;;27.00;71.70;;;;;;5082812;28;20325;-53
2022/01/31 13:01:45;;;;;;;43.75;10.18;;;27.00;71.60;;;;;;5106035;28;20101;-57
2022/01/31 13:04:21;;;;;;;44.33;10.40;;;27.00;70.90;;;;;;5106564;28;20215;-58
2022/01/31 13:06:59;;;;;;;24.98;8.52;;;27.00;70.60;;;;;;5106537;28;20020;-47
2022/01/31 13:09:34;;;;;;;39.20;9.43;;;27.10;70.80;;;;;;5106518;28;20055;-51
2022/01/31 13:12:11;;;;;;;74.05;10.65;;;27.10;70.60;;;;;;5106722;28;20016;-48
2022/01/31 13:14:45;;;;;;;85.55;12.98;;;27.10;70.50;;;;;;5106260;28;20061;-45
2022/01/31 13:17:20;;;;;;;64.30;11.80;;;27.00;70.60;;;;;;5106426;28;20024;-46
2022/01/31 13:19:59;;;;;;;55.28;10.65;;;27.10;70.40;;;;;;5106300;28;20107;-49